Terminal Aerodrome Forecast
Issued by NWS Sioux Falls, SD

Home | Current Version | Previous Version | Graphics & Text | Print | Product List | Glossary Off
Versions: 1 2 3 4 5 6 7 8 9 10 11 12 13 14 15 16 17 18 19

000
FTUS43 KFSD 161400 AAA
TAFFSD
TAF AMD
KFSD 161413Z 1614/1712 17015G22KT P6SM SCT030 OVC060
      TEMPO 1614/1617 -SHRA
     FM161700 29012G17KT P6SM -SHRA BKN030 OVC050
     FM162000 34021G32KT 5SM -RA OVC025
     FM162130 35023G31KT 3SM -SN BR OVC015
     FM162330 35021G28KT P6SM OVC020
     FM170300 35014G20KT P6SM OVC025
     FM170900 34009KT P6SM BKN012=

USA.gov is the U.S. government's official web portal to all federal, state and local government web resources and services.